createdAt,value
2023-03-05T00:00:47.686Z,4.00
2023-03-05T00:06:06.376Z,3.92
2023-03-05T00:11:12.736Z,3.60
2023-03-05T00:16:20.231Z,3.60
2023-03-05T00:21:27.863Z,3.13
2023-03-05T00:26:34.663Z,3.70
2023-03-05T00:31:39.678Z,2.95
2023-03-05T00:36:47.531Z,3.00
2023-03-05T00:41:52.296Z,3.08
2023-03-05T00:46:56.719Z,3.20
2023-03-05T00:52:02.554Z,2.80
2023-03-05T00:57:07.223Z,2.90
2023-03-05T01:02:11.577Z,2.50
2023-03-05T01:07:17.357Z,2.88
2023-03-05T01:12:21.652Z,2.67
2023-03-05T01:17:25.948Z,2.70
2023-03-05T01:22:31.956Z,3.17
2023-03-05T01:27:36.559Z,3.60
2023-03-05T01:32:41.260Z,3.50
2023-03-05T01:37:47.131Z,3.22
2023-03-05T01:42:58.574Z,4.05
2023-03-05T01:48:03.027Z,9.40
2023-03-05T01:53:09.553Z,4.57
2023-03-05T01:58:15.513Z,4.10
2023-03-05T02:03:21.232Z,8.43
2023-03-05T02:13:34.273Z,4.97
2023-03-05T02:18:39.077Z,5.03
2023-03-05T02:23:45.336Z,5.72
2023-03-05T02:28:54.603Z,4.47
2023-03-05T02:33:59.023Z,4.95
2023-03-05T02:39:05.836Z,4.70
2023-03-05T02:44:11.375Z,7.07
2023-03-05T02:49:15.830Z,9.27
2023-03-05T02:54:22.290Z,9.55
2023-03-05T02:59:26.779Z,13.27
2023-03-05T03:04:31.279Z,10.90
2023-03-05T03:09:37.153Z,7.18
2023-03-05T03:14:43.772Z,8.82
2023-03-05T03:19:48.195Z,31.92
2023-03-05T03:24:53.926Z,36.92
2023-03-05T03:35:08.272Z,18.10
2023-03-05T03:40:14.883Z,28.42
2023-03-05T03:45:19.748Z,19.02
2023-03-05T03:50:25.151Z,20.23
2023-03-05T03:55:30.871Z,7.22
2023-03-05T04:00:35.261Z,19.98
2023-03-05T04:05:39.516Z,11.32
2023-03-05T04:10:45.443Z,8.75
2023-03-05T04:20:54.955Z,13.88
2023-03-05T04:26:00.680Z,12.13
2023-03-05T04:36:10.112Z,15.38
2023-03-05T04:41:15.899Z,9.90
2023-03-05T04:46:20.134Z,9.05
2023-03-05T04:51:24.511Z,8.68
2023-03-05T04:56:30.275Z,12.93
2023-03-05T05:01:35.535Z,7.68
2023-03-05T05:06:39.946Z,8.23
2023-03-05T05:11:45.745Z,9.63
2023-03-05T05:16:50.071Z,9.00
2023-03-05T05:21:54.343Z,8.63
2023-03-05T05:27:00.150Z,8.95
2023-03-05T05:32:04.539Z,10.15
2023-03-05T05:37:09.062Z,11.48
2023-03-05T05:42:14.899Z,11.52
2023-03-05T05:47:19.655Z,11.20
2023-03-05T05:52:24.342Z,11.88
2023-03-05T05:57:30.088Z,15.20
2023-03-05T06:02:34.441Z,14.30
2023-03-05T06:07:38.887Z,13.13
2023-03-05T06:12:44.772Z,9.40
2023-03-05T06:17:49.400Z,11.43
2023-03-05T06:22:53.764Z,10.02
2023-03-05T06:27:59.580Z,11.05
2023-03-05T06:33:07.356Z,11.23
2023-03-05T06:38:12.903Z,8.75
2023-03-05T06:43:18.995Z,8.27
2023-03-05T06:48:23.340Z,7.60
2023-03-05T06:53:28.343Z,7.80
2023-03-05T06:58:34.115Z,7.57
2023-03-05T07:03:39.216Z,8.18
2023-03-05T07:08:46.803Z,8.82
2023-03-05T07:14:00.360Z,7.32
2023-03-05T07:19:14.693Z,8.52
2023-03-05T07:24:19.296Z,7.65
2023-03-05T07:29:25.323Z,7.80
2023-03-05T07:34:30.100Z,9.02
2023-03-05T07:39:34.710Z,6.03
2023-03-05T07:44:40.496Z,6.22
2023-03-05T07:54:48.712Z,5.57
2023-03-05T07:59:54.476Z,6.65
2023-03-05T08:10:03.741Z,5.65
2023-03-05T08:15:10.579Z,5.50
2023-03-05T08:20:15.310Z,6.40
2023-03-05T08:25:19.707Z,5.95
2023-03-05T08:30:27.617Z,6.05
2023-03-05T08:35:32.378Z,5.10
2023-03-05T08:40:36.883Z,6.47
2023-03-05T08:45:42.748Z,6.03
2023-03-05T08:50:47.263Z,5.65
2023-03-05T08:55:56.198Z,7.70
2023-03-05T09:01:02.035Z,6.93
2023-03-05T09:11:14.601Z,5.75
2023-03-05T09:16:21.224Z,7.97
2023-03-05T09:21:25.919Z,5.63
2023-03-05T09:26:30.593Z,7.68
2023-03-05T09:31:39.461Z,5.30
2023-03-05T09:36:49.265Z,5.70
2023-03-05T09:42:29.959Z,6.40
2023-03-05T09:48:20.505Z,6.45
2023-03-05T09:54:40.371Z,14.07
2023-03-05T10:00:33.172Z,9.27
2023-03-05T10:06:08.693Z,6.65
2023-03-05T10:11:55.151Z,40.33
2023-03-05T10:23:24.871Z,9.55
2023-03-05T10:28:37.132Z,14.07
2023-03-05T10:33:48.895Z,10.82
2023-03-05T10:39:30.919Z,9.55
2023-03-05T10:44:38.935Z,9.57
2023-03-05T10:49:51.783Z,10.27
2023-03-05T10:54:57.696Z,10.38
2023-03-05T11:05:38.816Z,9.43
2023-03-05T11:10:44.800Z,7.72
2023-03-05T11:21:13.870Z,5.43
2023-03-05T11:26:24.399Z,6.35
2023-03-05T11:31:30.360Z,7.65
2023-03-05T11:41:49.542Z,7.10
2023-03-05T11:46:57.721Z,8.52
2023-03-05T11:52:10.883Z,8.98
2023-03-05T11:57:34.669Z,8.77
2023-03-05T12:02:40.169Z,8.23
2023-03-05T12:13:01.424Z,9.63
2023-03-05T12:18:22.105Z,10.02
2023-03-05T12:23:28.162Z,12.75
2023-03-05T12:28:57.407Z,9.68
2023-03-05T12:34:21.988Z,10.23
2023-03-05T12:46:36.844Z,11.77
2023-03-05T12:51:44.064Z,8.13
2023-03-05T12:56:49.275Z,11.80
2023-03-05T13:01:58.157Z,9.88
2023-03-05T13:07:19.215Z,6.25
2023-03-05T13:12:30.644Z,7.70
2023-03-05T13:17:44.510Z,7.50
2023-03-05T13:22:48.872Z,6.10
2023-03-05T13:27:53.394Z,6.00
2023-03-05T13:33:04.244Z,7.28
2023-03-05T13:38:22.663Z,8.13
2023-03-05T13:43:28.558Z,8.57
2023-03-05T13:48:34.824Z,8.48
2023-03-05T13:53:41.781Z,8.00
2023-03-05T13:58:49.826Z,11.63
2023-03-05T14:03:58.803Z,17.23
2023-03-05T14:09:07.827Z,7.80
2023-03-05T14:14:19.243Z,9.10
2023-03-05T14:19:37.149Z,7.65
2023-03-05T14:24:42.948Z,10.57
2023-03-05T14:34:58.593Z,10.77
2023-03-05T14:40:06.557Z,11.48
2023-03-05T14:45:16.807Z,11.30
2023-03-05T14:50:25.343Z,10.77
2023-03-05T14:55:32.313Z,12.20
2023-03-05T15:00:36.890Z,11.25
2023-03-05T15:05:44.074Z,13.45
2023-03-05T15:10:48.619Z,14.15
2023-03-05T15:15:56.850Z,11.52
2023-03-05T15:21:10.149Z,11.18
2023-03-05T15:26:16.555Z,12.23
2023-03-05T15:31:21.087Z,13.52
2023-03-05T15:36:27.135Z,13.45
2023-03-05T15:41:31.615Z,13.18
2023-03-05T15:46:36.267Z,14.35
2023-03-05T15:51:42.145Z,14.82
2023-03-05T15:56:46.583Z,13.40
2023-03-05T16:01:52.812Z,13.52
2023-03-05T16:07:03.216Z,14.13
2023-03-05T16:12:14.343Z,16.02
2023-03-05T16:17:20.890Z,15.93
2023-03-05T16:22:27.008Z,16.42
2023-03-05T16:27:31.892Z,13.77
2023-03-05T16:32:38.595Z,13.80
2023-03-05T16:37:51.176Z,14.63
2023-03-05T16:42:55.756Z,14.93
2023-03-05T16:48:00.349Z,15.25
2023-03-05T16:53:06.543Z,13.57
2023-03-05T16:58:11.101Z,17.75
2023-03-05T17:03:15.848Z,16.00
2023-03-05T17:08:22.240Z,16.43
2023-03-05T17:13:26.698Z,17.70
2023-03-05T17:18:31.372Z,17.90
2023-03-05T17:23:38.444Z,15.48
2023-03-05T17:28:43.434Z,15.02
2023-03-05T17:33:48.412Z,11.70
2023-03-05T17:38:55.264Z,16.52
2023-03-05T17:43:59.634Z,14.38
2023-03-05T17:49:04.456Z,10.68
2023-03-05T17:54:10.402Z,12.00
2023-03-05T18:04:20.599Z,9.00
2023-03-05T18:09:26.516Z,16.87
2023-03-05T18:19:35.654Z,14.55
2023-03-05T18:24:42.229Z,14.93
2023-03-05T18:29:46.908Z,11.07
2023-03-05T18:34:52.943Z,8.10
2023-03-05T18:39:59.243Z,7.53
2023-03-05T18:45:04.704Z,8.27
2023-03-05T18:50:10.256Z,12.82
2023-03-05T18:55:17.208Z,17.15
2023-03-05T19:00:24.065Z,10.00
2023-03-05T19:05:28.731Z,12.00
2023-03-05T19:10:35.244Z,10.20
2023-03-05T19:15:41.295Z,10.20
2023-03-05T19:20:46.993Z,10.85
2023-03-05T19:25:52.982Z,12.45
2023-03-05T19:36:02.185Z,15.90
2023-03-05T19:41:09.996Z,20.60
2023-03-05T19:46:14.716Z,15.73
2023-03-05T19:51:23.258Z,16.97
2023-03-05T19:56:29.164Z,15.38
2023-03-05T20:06:38.996Z,14.63
2023-03-05T20:16:49.492Z,7.40
2023-03-05T20:21:54.285Z,8.15
2023-03-05T20:27:00.741Z,9.02
2023-03-05T20:32:05.483Z,8.63
2023-03-05T20:37:10.178Z,7.45
2023-03-05T20:42:16.228Z,6.57
2023-03-05T20:52:37.136Z,7.43
2023-03-05T20:57:46.663Z,9.25
2023-03-05T21:02:51.854Z,11.35
2023-03-05T21:07:56.359Z,9.63
2023-03-05T21:13:02.303Z,14.52
2023-03-05T21:23:11.693Z,13.40
2023-03-05T21:28:18.741Z,18.20
2023-03-05T21:33:26.814Z,13.02
2023-03-05T21:38:34.104Z,12.50
2023-03-05T21:43:40.101Z,13.80
2023-03-05T21:48:44.618Z,11.60
2023-03-05T21:53:49.357Z,12.40
2023-03-05T21:58:55.589Z,12.48
2023-03-05T22:04:00.032Z,14.23
2023-03-05T22:09:04.416Z,15.98
2023-03-05T22:14:10.363Z,17.83
2023-03-05T22:19:15.978Z,16.90
2023-03-05T22:24:21.878Z,17.92
2023-03-05T22:34:31.706Z,14.43
2023-03-05T22:39:36.173Z,14.05
2023-03-05T22:44:41.873Z,13.80
2023-03-05T22:49:46.961Z,13.73
2023-03-05T22:54:51.346Z,12.18
2023-03-05T22:59:57.042Z,10.73
2023-03-05T23:05:01.672Z,11.32
2023-03-05T23:10:08.684Z,9.32
2023-03-05T23:15:16.526Z,10.30
2023-03-05T23:20:22.726Z,10.48
2023-03-05T23:25:30.103Z,8.30
2023-03-05T23:30:39.499Z,9.23
2023-03-05T23:35:50.306Z,8.88
2023-03-05T23:40:56.198Z,8.30
2023-03-05T23:46:02.056Z,9.60
2023-03-05T23:51:10.385Z,8.88
2023-03-05T23:56:14.675Z,9.25
